Time;durP1;ratioP1;P1;durP2;ratioP2;P2;SDS_P1;SDS_P2;PMS_P1;PMS_P2;Temp;Humidity;BMP_temperature;BMP_pressure;BME280_temperature;BME280_humidity;BME280_pressure;Samples;Min_cycle;Max_cycle;Signal;HPM_P1;HPM_P2
2021/07/05 00:02:52;;;;;;;12.07;10.65;;;;;;;16.01;74.10;98305.56;2281917;78;20949;-80
2021/07/05 00:05:53;;;;;;;12.98;11.40;;;;;;;15.91;74.04;98307.94;2281941;78;20962;-81
2021/07/05 00:08:54;;;;;;;16.25;12.63;;;;;;;15.85;74.33;98310.23;2288558;77;20944;-80
2021/07/05 00:11:55;;;;;;;24.07;20.57;;;;;;;15.85;74.64;98302.34;2291800;78;20932;-83
2021/07/05 00:14:56;;;;;;;74.17;55.48;;;;;;;15.87;74.69;98307.13;2291754;78;20912;-80
2021/07/05 00:17:57;;;;;;;16.10;13.30;;;;;;;15.88;74.47;98304.91;2291844;78;20932;-80
2021/07/05 00:20:58;;;;;;;12.43;11.22;;;;;;;15.82;74.29;98305.47;2291683;78;20940;-80
2021/07/05 00:23:59;;;;;;;12.90;11.38;;;;;;;15.74;74.23;98305.61;2291700;78;20972;-79
2021/07/05 00:27:00;;;;;;;17.02;12.05;;;;;;;15.67;74.26;98306.61;2291664;78;20949;-80
2021/07/05 00:30:01;;;;;;;16.62;13.50;;;;;;;15.59;74.31;98307.16;2291652;78;20991;-80
2021/07/05 00:33:01;;;;;;;16.07;13.38;;;;;;;15.56;74.67;98299.28;2291547;78;20905;-83
2021/07/05 00:36:02;;;;;;;12.80;11.38;;;;;;;15.56;74.71;98297.96;2291745;78;20881;-80
2021/07/05 00:39:03;;;;;;;13.43;11.40;;;;;;;15.55;74.58;98308.06;2291561;78;20960;-80
2021/07/05 00:42:04;;;;;;;12.82;11.53;;;;;;;15.50;74.57;98308.58;2291612;78;20904;-80
2021/07/05 00:45:05;;;;;;;12.65;11.35;;;;;;;15.46;74.73;98312.16;2291574;78;20932;-81
2021/07/05 00:48:06;;;;;;;15.70;11.90;;;;;;;15.42;74.76;98307.84;2291608;78;20957;-79
2021/07/05 00:51:07;;;;;;;13.05;11.65;;;;;;;15.39;74.61;98298.69;2291461;78;20957;-79
2021/07/05 00:54:08;;;;;;;12.40;11.00;;;;;;;15.34;74.44;98301.83;2291433;78;20944;-77
2021/07/05 00:57:20;;;;;;;14.15;12.55;;;;;;;15.29;74.44;98300.59;2291478;78;20952;-80
2021/07/05 01:00:11;;;;;;;12.95;11.75;;;;;;;15.25;74.61;98301.53;2289705;77;20955;-79
2021/07/05 01:03:12;;;;;;;14.65;12.20;;;;;;;15.15;74.50;98295.55;2291510;78;20980;-80
2021/07/05 01:06:13;;;;;;;12.98;11.68;;;;;;;15.08;74.74;98297.84;2292035;78;20912;-80
2021/07/05 01:09:14;;;;;;;13.60;12.15;;;;;;;15.03;74.78;98298.36;2291599;78;21016;-79
2021/07/05 01:12:16;;;;;;;12.98;11.78;;;;;;;15.01;74.90;98297.52;2291510;78;20900;-80
2021/07/05 01:15:17;;;;;;;14.28;12.07;;;;;;;14.98;75.16;98293.17;2291991;78;20884;-83
2021/07/05 01:18:18;;;;;;;14.28;10.60;;;;;;;15.02;75.21;98301.01;2291575;78;20972;-81
2021/07/05 01:21:19;;;;;;;13.13;11.75;;;;;;;15.00;74.96;98301.03;2291679;78;20912;-80
2021/07/05 01:24:20;;;;;;;12.07;10.88;;;;;;;14.88;74.90;98298.13;2291283;78;20936;-79
2021/07/05 01:27:23;;;;;;;12.55;11.25;;;;;;;14.82;75.02;98293.41;2291521;78;20947;-80
2021/07/05 01:30:24;;;;;;;16.10;11.70;;;;;;;14.82;75.23;98298.66;2291644;78;21046;-80
2021/07/05 01:33:25;;;;;;;12.53;11.28;;;;;;;14.80;74.92;98297.38;2291637;78;21278;-80
2021/07/05 01:36:26;;;;;;;14.05;10.88;;;;;;;14.75;74.99;98306.20;2291652;78;20897;-79
2021/07/05 01:39:27;;;;;;;12.00;10.70;;;;;;;14.72;75.15;98302.27;2291607;78;21340;-80
2021/07/05 01:42:28;;;;;;;12.60;10.88;;;;;;;14.67;75.05;98307.59;2291566;78;20971;-80
2021/07/05 01:45:28;;;;;;;12.35;11.20;;;;;;;14.65;75.19;98307.61;2291675;78;20937;-80
2021/07/05 01:48:29;;;;;;;11.10;9.90;;;;;;;14.62;75.22;98302.39;2291574;78;20940;-80
2021/07/05 01:51:30;;;;;;;11.25;10.25;;;;;;;14.60;75.22;98302.86;2291573;78;20957;-80
2021/07/05 01:54:31;;;;;;;13.95;11.45;;;;;;;14.58;75.21;98296.75;2291142;78;20958;-79
2021/07/05 01:57:35;;;;;;;12.05;10.95;;;;;;;14.54;75.30;98296.38;2291534;78;21349;-81
2021/07/05 02:00:35;;;;;;;11.40;10.30;;;;;;;14.53;75.34;98293.31;2291348;78;21096;-78
2021/07/05 02:03:36;;;;;;;22.55;19.27;;;;;;;14.47;75.06;98298.65;2291593;78;21036;-78
2021/07/05 02:06:37;;;;;;;22.77;19.62;;;;;;;14.40;74.87;98298.27;2291722;78;20932;-79
2021/07/05 02:09:37;;;;;;;12.70;11.50;;;;;;;14.36;75.08;98299.19;2283463;78;20942;-79
2021/07/05 02:12:39;;;;;;;13.28;11.03;;;;;;;14.35;75.22;98305.33;2281903;78;20904;-79
2021/07/05 02:15:40;;;;;;;14.47;12.23;;;;;;;14.33;75.28;98300.09;2281840;78;20934;-78
2021/07/05 02:18:41;;;;;;;15.13;13.13;;;;;;;14.33;75.38;98296.60;2281994;78;20974;-80
2021/07/05 02:21:41;;;;;;;12.53;11.33;;;;;;;14.33;75.78;98297.91;2282090;78;20929;-80
2021/07/05 02:24:42;;;;;;;14.15;12.75;;;;;;;14.39;75.66;98295.22;2282150;78;20903;-81
2021/07/05 02:27:43;;;;;;;16.50;12.23;;;;;;;14.40;75.48;98298.27;2281881;78;20910;-79
2021/07/05 02:30:44;;;;;;;14.18;11.97;;;;;;;14.33;75.34;98290.03;2282138;78;20969;-80
2021/07/05 02:33:45;;;;;;;25.23;22.45;;;;;;;14.29;75.40;98302.77;2281979;78;20959;-79
2021/07/05 02:36:46;;;;;;;15.63;13.98;;;;;;;14.25;75.29;98310.26;2281900;78;20985;-79
2021/07/05 02:39:48;;;;;;;13.48;12.07;;;;;;;14.16;75.11;98312.98;2281421;78;21405;-79
2021/07/05 02:42:49;;;;;;;14.75;12.45;;;;;;;14.11;75.26;98313.03;2281899;78;20942;-79
2021/07/05 02:45:50;;;;;;;16.70;12.15;;;;;;;14.09;75.32;98317.88;2282088;78;20942;-79
2021/07/05 02:48:51;;;;;;;14.03;12.73;;;;;;;14.11;75.59;98322.22;2282071;78;20902;-80
2021/07/05 02:51:52;;;;;;;12.47;11.38;;;;;;;14.14;75.47;98327.44;2282054;78;20907;-80
2021/07/05 02:54:53;;;;;;;13.43;11.97;;;;;;;14.14;75.22;98326.13;2282361;78;21382;-81
2021/07/05 02:57:53;;;;;;;14.78;12.20;;;;;;;14.12;75.38;98329.21;2282138;78;20910;-82
2021/07/05 03:00:54;;;;;;;13.70;12.33;;;;;;;14.19;75.59;98328.27;2282053;78;20977;-80
2021/07/05 03:03:55;;;;;;;86.37;73.22;;;;;;;14.28;75.76;98317.66;2282161;78;20990;-80
2021/07/05 03:06:56;;;;;;;66.35;53.00;;;;;;;14.39;75.55;98321.47;2282347;78;20934;-80
2021/07/05 03:09:57;;;;;;;20.85;15.28;;;;;;;14.41;75.13;98326.70;2281762;77;20963;-80
2021/07/05 03:12:58;;;;;;;14.03;12.60;;;;;;;14.38;75.16;98334.17;2282308;78;20956;-82
2021/07/05 03:15:59;;;;;;;14.78;13.38;;;;;;;14.42;75.10;98331.07;2282303;78;20912;-81
2021/07/05 03:19:00;;;;;;;16.45;14.60;;;;;;;14.50;75.22;98324.00;2282096;78;21316;-80
2021/07/05 03:22:01;;;;;;;48.78;38.67;;;;;;;14.55;74.97;98322.19;2282029;78;20940;-79
2021/07/05 03:25:02;;;;;;;16.87;14.45;;;;;;;14.58;74.76;98324.78;2282051;78;21335;-80
2021/07/05 03:28:03;;;;;;;15.58;13.20;;;;;;;14.62;74.66;98332.59;2282281;78;20960;-79
2021/07/05 03:31:04;;;;;;;12.98;11.78;;;;;;;14.70;74.74;98332.95;2281963;78;20932;-82
2021/07/05 03:34:05;;;;;;;14.10;12.15;;;;;;;14.76;74.63;98328.52;2281923;78;21380;-80
2021/07/05 03:37:06;;;;;;;14.50;12.30;;;;;;;14.84;74.70;98337.61;2281752;78;20960;-79
2021/07/05 03:40:07;;;;;;;14.93;13.20;;;;;;;14.94;74.30;98340.54;2281880;78;20952;-80
2021/07/05 03:43:08;;;;;;;27.90;12.80;;;;;;;14.99;74.32;98338.72;2281783;78;21257;-79
2021/07/05 03:46:09;;;;;;;48.65;14.90;;;;;;;15.06;74.29;98343.44;2281624;78;21631;-79
2021/07/05 03:49:10;;;;;;;16.30;13.30;;;;;;;15.16;74.25;98342.42;2281788;78;20969;-78
2021/07/05 03:52:10;;;;;;;19.85;13.40;;;;;;;15.30;74.41;98347.03;2281955;78;21305;-80
2021/07/05 03:55:11;;;;;;;17.90;15.45;;;;;;;15.45;74.62;98348.55;2281721;78;21260;-81
2021/07/05 03:58:12;;;;;;;42.05;17.80;;;;;;;15.62;74.63;98354.94;2281965;78;21296;-80
2021/07/05 04:01:13;;;;;;;23.38;16.67;;;;;;;15.78;74.63;98352.02;2281564;78;21011;-80
2021/07/05 04:04:14;;;;;;;18.23;16.07;;;;;;;15.95;74.49;98350.42;2281720;78;21451;-79
2021/07/05 04:07:16;;;;;;;19.12;16.02;;;;;;;16.09;74.51;98352.80;2280638;78;20948;-80
2021/07/05 04:10:18;;;;;;;37.98;16.82;;;;;;;16.30;74.68;98361.63;2281269;78;21037;-80
2021/07/05 04:13:21;;;;;;;19.92;14.33;;;;;;;16.43;74.59;98361.81;2280939;78;20966;-82
2021/07/05 04:16:21;;;;;;;17.37;14.73;;;;;;;16.63;74.47;98357.50;2281463;78;20959;-81
2021/07/05 04:19:22;;;;;;;22.62;15.35;;;;;;;16.69;74.42;98359.18;2280728;78;20993;-80
2021/07/05 04:22:23;;;;;;;16.85;15.13;;;;;;;16.79;74.66;98366.00;2281153;78;20899;-80
2021/07/05 04:25:25;;;;;;;18.10;14.70;;;;;;;16.88;74.58;98367.99;2281160;78;20990;-80
2021/07/05 04:28:25;;;;;;;15.85;14.25;;;;;;;16.99;74.66;98366.89;2281077;78;20910;-81
2021/07/05 04:31:26;;;;;;;36.73;30.40;;;;;;;17.10;74.68;98370.17;2281323;78;21052;-79
2021/07/05 04:34:29;;;;;;;18.70;16.73;;;;;;;17.24;74.68;98376.45;2260311;78;20905;-81
2021/07/05 04:37:30;;;;;;;16.12;14.33;;;;;;;17.35;74.62;98383.71;2281519;78;20926;-81
2021/07/05 04:40:31;;;;;;;16.15;14.55;;;;;;;17.48;74.69;98386.48;2281546;78;21242;-81
2021/07/05 04:43:32;;;;;;;87.20;71.90;;;;;;;17.63;74.46;98387.89;2281416;78;20945;-79
2021/07/05 04:46:33;;;;;;;83.30;67.35;;;;;;;17.83;74.57;98381.27;2281166;78;20911;-80
2021/07/05 04:49:34;;;;;;;42.95;18.25;;;;;;;18.05;74.36;98379.41;2281650;78;21018;-82
2021/07/05 04:52:35;;;;;;;20.40;17.87;;;;;;;18.27;74.23;98375.33;2281865;78;20922;-80
2021/07/05 04:55:36;;;;;;;19.52;16.05;;;;;;;18.49;73.82;98381.36;2281397;78;20965;-81
2021/07/05 04:58:37;;;;;;;22.10;17.15;;;;;;;18.67;73.40;98375.59;2281732;78;20950;-81
2021/07/05 05:01:38;;;;;;;34.23;20.27;;;;;;;18.81;73.26;98373.43;2281286;78;21016;-82
2021/07/05 05:04:39;;;;;;;40.78;23.10;;;;;;;18.95;73.09;98368.61;2281536;78;20937;-82
2021/07/05 05:07:40;;;;;;;45.75;22.85;;;;;;;19.08;72.81;98370.02;2281857;78;21425;-83
2021/07/05 05:10:41;;;;;;;28.20;19.25;;;;;;;19.25;72.76;98368.64;2251078;77;20951;-81
2021/07/05 05:13:42;;;;;;;29.55;20.10;;;;;;;19.47;72.71;98361.77;2249451;79;21268;-84
2021/07/05 05:16:47;;;;;;;87.40;25.27;;;;;;;19.68;72.44;98366.41;2249550;79;21297;-81
2021/07/05 05:19:48;;;;;;;42.55;22.27;;;;;;;19.88;72.11;98368.86;2249715;79;21323;-82
2021/07/05 05:22:49;;;;;;;33.02;21.80;;;;;;;20.08;71.54;98366.44;2249536;79;20885;-81
2021/07/05 05:25:53;;;;;;;29.82;21.30;;;;;;;20.28;71.09;98360.45;2249513;79;21007;-81
2021/07/05 05:28:54;;;;;;;45.70;22.48;;;;;;;20.48;70.74;98363.77;2249853;79;20940;-83
2021/07/05 05:31:55;;;;;;;57.17;24.40;;;;;;;20.70;70.41;98366.05;2249544;79;21027;-82
2021/07/05 05:34:56;;;;;;;23.65;20.37;;;;;;;20.84;70.22;98365.57;2250326;79;20908;-82
2021/07/05 05:37:57;;;;;;;28.77;20.35;;;;;;;20.87;69.87;98367.65;2250072;79;21004;-82
2021/07/05 05:40:58;;;;;;;36.33;19.77;;;;;;;20.90;69.91;98370.65;2249015;79;20924;-82
2021/07/05 05:44:00;;;;;;;34.80;21.23;;;;;;;20.93;69.89;98374.05;2249336;79;20927;-83
2021/07/05 05:47:02;;;;;;;39.03;34.50;;;;;;;20.94;69.74;98374.92;2249458;79;20913;-83
2021/07/05 05:50:03;;;;;;;106.07;94.90;;;;;;;20.90;69.86;98375.95;2249827;79;20935;-83
2021/07/05 05:53:04;;;;;;;31.57;21.77;;;;;;;21.11;70.15;98370.30;2249863;79;20917;-82
2021/07/05 05:56:05;;;;;;;19.75;17.95;;;;;;;21.57;69.52;98368.94;2249603;79;21449;-81
2021/07/05 05:59:07;;;;;;;18.40;16.52;;;;;;;21.97;68.88;98366.48;2248840;79;20916;-82
2021/07/05 06:02:08;;;;;;;17.65;15.95;;;;;;;22.24;67.70;98367.55;2249321;79;21623;-81
2021/07/05 06:05:09;;;;;;;17.77;15.85;;;;;;;22.50;66.89;98366.88;2248886;79;20975;-82
2021/07/05 06:08:10;;;;;;;18.27;15.25;;;;;;;22.65;66.56;98368.90;2249299;77;20982;-81
2021/07/05 06:11:11;;;;;;;20.15;17.35;;;;;;;22.93;66.25;98358.38;2281585;78;20957;-80
2021/07/05 06:14:12;;;;;;;281.63;217.40;;;;;;;23.18;64.84;98352.31;2281092;78;20922;-80
2021/07/05 06:17:13;;;;;;;199.50;141.22;;;;;;;23.59;65.31;98357.53;2281016;78;21433;-80
2021/07/05 06:20:14;;;;;;;17.00;13.88;;;;;;;24.14;63.67;98355.66;2280936;78;20926;-80
2021/07/05 06:23:26;;;;;;;149.40;111.00;;;;;;;24.37;61.43;98365.22;2280744;78;20949;-80
2021/07/05 06:26:24;;;;;;;14.47;12.98;;;;;;;24.30;61.41;98360.67;2280449;78;20950;-79
2021/07/05 06:29:25;;;;;;;14.30;12.95;;;;;;;24.24;60.27;98354.72;2280937;78;20954;-79
2021/07/05 06:32:26;;;;;;;10.68;9.58;;;;;;;24.34;59.69;98358.70;2280900;78;21057;-79
2021/07/05 06:35:27;;;;;;;54.75;37.40;;;;;;;24.18;58.10;98361.70;2280784;78;20910;-81
2021/07/05 06:38:28;;;;;;;14.05;10.93;;;;;;;24.02;58.59;98362.95;2280926;78;20949;-79
2021/07/05 06:44:34;;;;;;;12.50;11.07;;;;;;;24.75;59.40;98358.73;2261177;78;21337;-79
2021/07/05 06:47:35;;;;;;;15.45;10.72;;;;;;;24.98;56.35;98364.69;2281626;78;20926;-79
2021/07/05 06:50:36;;;;;;;13.62;12.33;;;;;;;24.70;56.70;98352.78;2281555;78;20922;-78
2021/07/05 06:53:40;;;;;;;17.73;16.05;;;;;;;24.71;57.00;98354.98;2281610;78;20978;-80
2021/07/05 06:56:41;;;;;;;14.20;10.90;;;;;;;25.25;57.08;98353.86;2281506;78;21302;-79
2021/07/05 06:59:42;;;;;;;11.60;10.50;;;;;;;25.60;55.74;98349.20;2281356;78;21434;-80
2021/07/05 07:02:43;;;;;;;12.90;11.70;;;;;;;25.59;53.89;98347.48;2281097;78;20977;-80
2021/07/05 07:05:44;;;;;;;67.45;21.80;;;;;;;25.44;54.94;98343.01;2281515;78;21398;-79
2021/07/05 07:08:46;;;;;;;52.08;16.12;;;;;;;25.79;55.40;98350.39;2281177;78;20979;-80
2021/07/05 07:11:47;;;;;;;9.48;8.35;;;;;;;26.02;53.51;98349.08;2289651;78;20991;-79
2021/07/05 07:14:48;;;;;;;12.10;8.95;;;;;;;25.89;50.38;98346.70;2290065;78;20940;-80
2021/07/05 07:20:51;;;;;;;16.87;8.73;;;;;;;25.87;51.34;98345.93;2267640;78;21011;-79
2021/07/05 07:23:53;;;;;;;70.40;12.58;;;;;;;26.07;50.96;98347.48;2290199;78;20888;-79
2021/07/05 07:26:54;;;;;;;9.75;7.87;;;;;;;26.20;50.13;98344.46;2290725;78;20912;-78
2021/07/05 07:29:55;;;;;;;15.30;8.13;;;;;;;26.30;46.88;98353.66;2291054;78;20915;-79
2021/07/05 07:32:56;;;;;;;11.30;7.22;;;;;;;26.15;48.02;98351.42;2291014;78;21023;-78
2021/07/05 07:36:01;;;;;;;11.10;8.70;;;;;;;26.22;48.76;98347.43;2291277;78;21368;-78
2021/07/05 07:39:09;;;;;;;14.97;10.43;;;;;;;26.51;48.15;98342.17;2290855;77;21042;-78
2021/07/05 07:42:08;;;;;;;11.12;8.35;;;;;;;26.53;48.06;98333.09;2290163;77;21152;-78
2021/07/05 07:45:09;;;;;;;12.95;8.05;;;;;;;26.76;47.22;98329.48;2291023;78;20920;-79
2021/07/05 07:48:10;;;;;;;8.55;7.70;;;;;;;26.72;47.03;98327.95;2290736;78;20928;-81
2021/07/05 07:51:11;;;;;;;11.35;8.55;;;;;;;26.52;45.64;98316.66;2291312;78;20943;-78
2021/07/05 07:54:12;;;;;;;22.27;17.77;;;;;;;26.54;47.18;98320.10;2291138;78;20956;-78
2021/07/05 07:57:16;;;;;;;7.72;7.03;;;;;;;26.80;45.92;98320.30;2291304;78;21285;-78
2021/07/05 08:00:16;;;;;;;;;;;;;;;27.05;45.48;98320.55;2293867;78;20995;-78
2021/07/05 08:03:17;;;;;;;8.38;7.67;;;;;;;26.83;44.09;98327.67;2290810;78;20395;-79
2021/07/05 08:06:18;;;;;;;8.20;6.72;;;;;;;26.75;45.08;98331.78;2291087;78;20972;-79
2021/07/05 08:09:19;;;;;;;7.15;6.45;;;;;;;26.91;43.54;98336.59;2287888;78;20969;-78
2021/07/05 08:12:20;;;;;;;19.57;9.60;;;;;;;27.11;44.17;98322.84;2280511;77;20978;-79
2021/07/05 08:15:21;;;;;;;10.03;7.10;;;;;;;27.43;44.90;98323.45;2280912;77;20898;-79
2021/07/05 08:18:22;;;;;;;8.58;7.10;;;;;;;27.76;43.29;98319.59;2281007;78;21013;-78
2021/07/05 08:21:23;;;;;;;17.98;8.83;;;;;;;27.95;42.54;98320.08;2281347;78;20926;-78
2021/07/05 08:24:24;;;;;;;16.73;8.35;;;;;;;28.03;43.06;98316.41;2280758;77;21315;-79
2021/07/05 08:27:25;;;;;;;19.48;8.20;;;;;;;28.27;42.40;98318.41;2280572;78;20915;-81
2021/07/05 08:30:27;;;;;;;5.97;5.40;;;;;;;28.49;41.72;98320.86;2280445;77;21373;-79
2021/07/05 08:33:28;;;;;;;6.30;5.70;;;;;;;28.51;38.64;98322.09;2280874;77;20950;-78
2021/07/05 08:36:29;;;;;;;6.67;5.70;;;;;;;28.24;38.64;98318.14;2280777;77;20989;-79
2021/07/05 08:39:30;;;;;;;8.15;5.80;;;;;;;28.17;38.84;98314.98;2281351;77;20962;-79
2021/07/05 08:42:31;;;;;;;6.55;5.10;;;;;;;28.25;39.03;98314.50;2281406;77;20981;-80
2021/07/05 08:45:32;;;;;;;10.38;6.47;;;;;;;28.49;38.59;98307.44;2281096;78;20926;-80
2021/07/05 08:48:34;;;;;;;30.75;6.70;;;;;;;28.91;38.66;98306.79;2281147;77;21025;-79
2021/07/05 08:51:35;;;;;;;116.62;105.15;;;;;;;29.18;38.70;98302.13;2280611;77;20922;-80
2021/07/05 08:54:36;;;;;;;6.40;5.50;;;;;;;29.29;36.39;98305.85;2280139;78;21020;-80
2021/07/05 08:57:41;;;;;;;8.73;7.70;;;;;;;29.10;34.58;98299.13;2280549;78;20919;-80
2021/07/05 09:00:43;;;;;;;7.75;5.45;;;;;;;29.10;34.61;98307.19;2280339;78;20894;-79
2021/07/05 09:03:44;;;;;;;47.53;42.63;;;;;;;28.99;34.74;98302.21;2280753;77;21008;-81
2021/07/05 09:06:45;;;;;;;82.08;71.47;;;;;;;29.11;36.99;98300.84;2280450;78;21083;-80
2021/07/05 09:09:46;;;;;;;201.42;158.65;;;;;;;29.32;35.80;98303.80;2270354;78;21352;-82
2021/07/05 09:12:47;;;;;;;9.10;6.50;;;;;;;29.28;35.80;98296.07;2249323;79;20900;-81
2021/07/05 09:15:48;;;;;;;42.23;31.75;;;;;;;29.51;33.85;98298.00;2248926;79;21000;-81
2021/07/05 09:18:49;;;;;;;6.53;6.03;;;;;;;29.46;35.15;98292.92;2248950;79;20966;-81
2021/07/05 09:21:50;;;;;;;8.75;6.75;;;;;;;29.34;32.36;98299.66;2248611;79;20913;-81
2021/07/05 09:24:51;;;;;;;9.10;7.92;;;;;;;29.22;34.63;98300.55;2248593;79;20955;-82
2021/07/05 09:27:52;;;;;;;6.67;6.00;;;;;;;29.17;35.51;98300.89;2248751;79;20916;-81
2021/07/05 09:30:54;;;;;;;9.63;5.97;;;;;;;28.78;35.79;98308.59;2248487;79;20913;-80
2021/07/05 09:33:55;;;;;;;6.70;6.10;;;;;;;28.70;36.88;98309.62;2248512;79;21027;-80
2021/07/05 09:36:56;;;;;;;6.83;6.20;;;;;;;28.79;35.48;98315.69;2248660;79;21383;-80
2021/07/05 09:39:59;;;;;;;7.67;6.25;;;;;;;28.77;34.55;98313.59;2249072;79;20960;-81
2021/07/05 09:43:00;;;;;;;9.55;6.20;;;;;;;28.58;35.14;98313.12;2249369;79;20909;-81
2021/07/05 09:46:03;;;;;;;8.88;6.20;;;;;;;28.49;34.83;98314.14;2248928;79;21344;-80
2021/07/05 09:49:04;;;;;;;7.45;6.60;;;;;;;28.43;33.90;98317.26;2249257;79;21384;-79
2021/07/05 09:52:07;;;;;;;7.20;5.58;;;;;;;28.46;35.16;98314.36;2249452;79;20900;-82
2021/07/05 09:55:08;;;;;;;5.85;5.35;;;;;;;28.83;34.14;98319.88;2249449;79;21367;-78
2021/07/05 09:58:15;;;;;;;7.28;6.25;;;;;;;28.98;34.18;98320.16;2249052;79;20956;-81
2021/07/05 10:01:16;;;;;;;10.82;6.37;;;;;;;29.08;34.42;98323.05;2249204;79;20932;-80
2021/07/05 10:04:23;;;;;;;5.78;5.05;;;;;;;29.11;33.95;98327.72;2249094;79;20968;-80
2021/07/05 10:07:20;;;;;;;9.23;5.37;;;;;;;28.57;33.53;98324.84;2248715;77;20980;-81
2021/07/05 10:10:20;;;;;;;70.37;60.83;;;;;;;28.39;34.46;98323.80;2249111;77;20964;-79
2021/07/05 10:13:22;;;;;;;17.12;14.18;;;;;;;28.81;34.67;98318.64;2248679;79;20974;-79
2021/07/05 10:16:23;;;;;;;8.70;7.92;;;;;;;29.30;32.31;98321.88;2248519;79;20944;-80
2021/07/05 10:19:24;;;;;;;5.70;5.30;;;;;;;29.45;31.95;98319.92;2248886;79;20924;-80
2021/07/05 10:22:25;;;;;;;14.23;12.10;;;;;;;29.77;31.24;98316.23;2249153;79;20913;-80
2021/07/05 10:25:26;;;;;;;16.05;12.75;;;;;;;30.09;32.55;98313.84;2248828;79;20976;-80
2021/07/05 10:28:27;;;;;;;54.80;35.88;;;;;;;30.59;32.23;98307.80;2248609;79;20919;-80
2021/07/05 10:31:29;;;;;;;5.70;5.17;;;;;;;30.93;31.56;98306.84;2248131;79;20948;-80
2021/07/05 10:34:30;;;;;;;9.98;7.60;;;;;;;31.10;30.63;98303.28;2248839;79;20999;-80
2021/07/05 10:37:31;;;;;;;4.97;4.58;;;;;;;31.09;30.76;98303.78;2248782;79;20897;-82
2021/07/05 10:40:32;;;;;;;6.15;4.65;;;;;;;30.98;30.22;98311.38;2249641;79;20959;-81
2021/07/05 10:43:33;;;;;;;5.15;4.65;;;;;;;31.11;29.19;98305.00;2249892;79;21007;-79
2021/07/05 10:46:33;;;;;;;5.85;5.33;;;;;;;31.11;29.33;98307.70;2249186;79;20972;-80
2021/07/05 10:49:35;;;;;;;5.78;5.30;;;;;;;30.56;29.78;98310.20;2248824;79;20877;-82
2021/07/05 10:52:36;;;;;;;5.67;4.62;;;;;;;30.21;31.73;98316.08;2248597;79;20943;-81
2021/07/05 10:55:37;;;;;;;5.47;5.03;;;;;;;30.37;30.21;98309.43;2248244;79;20952;-80
2021/07/05 10:58:38;;;;;;;5.17;4.78;;;;;;;30.63;31.01;98309.27;2247842;79;20944;-81
2021/07/05 11:01:39;;;;;;;29.95;20.20;;;;;;;30.85;29.95;98307.94;2248533;79;20972;-83
2021/07/05 11:04:40;;;;;;;53.90;41.13;;;;;;;30.74;31.58;98302.55;2248642;79;20990;-82
2021/07/05 11:07:41;;;;;;;5.58;5.08;;;;;;;30.99;31.56;98299.61;2248651;79;21339;-83
2021/07/05 11:10:44;;;;;;;5.15;4.75;;;;;;;31.09;30.05;98297.53;2249002;78;21703;-81
2021/07/05 11:13:48;;;;;;;4.67;4.28;;;;;;;30.99;29.65;98299.61;2249459;79;20920;-83
2021/07/05 11:16:49;;;;;;;5.40;4.67;;;;;;;30.84;29.93;98298.14;2249298;79;20948;-80
2021/07/05 11:19:51;;;;;;;8.65;7.83;;;;;;;30.53;29.00;98304.20;2249154;79;20909;-83
2021/07/05 11:22:52;;;;;;;10.48;4.05;;;;;;;30.64;30.31;98302.91;2249257;79;20964;-84
2021/07/05 11:25:53;;;;;;;8.15;4.03;;;;;;;31.16;28.40;98303.68;2249994;79;20972;-82
2021/07/05 11:28:53;;;;;;;5.03;3.90;;;;;;;31.27;28.02;98305.55;2249571;79;20889;-82
2021/07/05 11:31:55;;;;;;;7.03;4.12;;;;;;;31.35;27.54;98307.13;2249155;79;20913;-82
2021/07/05 11:34:55;;;;;;;124.87;106.52;;;;;;;31.74;27.40;98300.81;2247968;79;20944;-83
2021/07/05 11:37:56;;;;;;;9.10;8.20;;;;;;;31.56;27.41;98299.11;2248279;79;20959;-84
2021/07/05 11:40:58;;;;;;;5.03;3.90;;;;;;;31.78;27.40;98300.92;2248169;79;20999;-82
2021/07/05 11:44:01;;;;;;;4.60;4.20;;;;;;;31.91;27.65;98297.55;2248959;79;20935;-83
2021/07/05 11:47:02;;;;;;;7.20;4.60;;;;;;;32.08;26.36;98292.09;2248872;79;20988;-81
2021/07/05 11:50:03;;;;;;;4.92;3.80;;;;;;;32.25;27.22;98292.42;2249184;79;20988;-84
2021/07/05 11:53:04;;;;;;;13.50;12.18;;;;;;;32.28;27.46;98288.11;2249431;79;20912;-83
2021/07/05 11:56:05;;;;;;;5.35;4.12;;;;;;;32.62;28.00;98293.30;2249228;79;20984;-83
2021/07/05 11:59:05;;;;;;;19.67;6.25;;;;;;;32.04;27.68;98298.73;2249171;79;20956;-81
2021/07/05 12:02:07;;;;;;;7.95;4.58;;;;;;;31.31;28.72;98293.03;2248937;79;20980;-83
2021/07/05 12:05:10;;;;;;;;;;;;;;;30.66;29.80;98299.59;2229685;79;20949;-84
2021/07/05 12:08:11;;;;;;;5.05;4.60;;;;;;;29.87;30.36;98305.16;2248750;79;20131;-81
2021/07/05 12:11:13;;;;;;;5.22;4.72;;;;;;;29.42;31.08;98294.58;2271913;77;20964;-81
2021/07/05 12:14:14;;;;;;;47.20;31.77;;;;;;;29.32;31.22;98293.53;2291530;78;20984;-82
2021/07/05 12:17:15;;;;;;;5.87;4.95;;;;;;;29.25;31.97;98284.20;2291545;78;20924;-80
2021/07/05 12:20:17;;;;;;;12.03;5.12;;;;;;;29.30;32.25;98288.75;2291274;78;20940;-82
2021/07/05 12:23:18;;;;;;;8.00;6.22;;;;;;;29.37;33.12;98291.37;2291333;78;21359;-81
2021/07/05 12:26:20;;;;;;;6.25;4.80;;;;;;;29.62;32.54;98285.09;2291516;78;21007;-82
2021/07/05 12:29:25;;;;;;;4.50;4.03;;;;;;;29.65;31.88;98288.42;2291678;78;20912;-82
2021/07/05 12:32:31;;;;;;;8.03;4.03;;;;;;;29.83;32.49;98289.36;2291013;77;21194;-80
2021/07/05 12:35:36;;;;;;;10.78;4.37;;;;;;;29.97;30.54;98287.34;2290900;78;20975;-80
2021/07/05 12:38:37;;;;;;;6.55;4.70;;;;;;;30.14;30.73;98286.57;2291376;78;20940;-84
2021/07/05 12:41:42;;;;;;;4.62;4.22;;;;;;;30.19;30.63;98285.23;2290935;78;20963;-81
2021/07/05 12:44:40;;;;;;;4.40;4.10;;;;;;;30.73;30.31;98277.93;2290252;77;20924;-80
2021/07/05 12:47:41;;;;;;;6.42;4.45;;;;;;;31.17;29.77;98277.09;2291035;78;20908;-82
2021/07/05 12:50:42;;;;;;;7.03;4.05;;;;;;;31.82;28.95;98276.74;2290728;78;20904;-82
2021/07/05 12:53:43;;;;;;;4.62;4.28;;;;;;;32.08;27.92;98275.89;2291348;78;20940;-81
2021/07/05 12:56:50;;;;;;;5.20;4.12;;;;;;;31.85;28.59;98273.78;2291326;78;20947;-82
2021/07/05 12:59:51;;;;;;;4.05;3.75;;;;;;;31.63;28.58;98282.78;2291441;77;20982;-82
2021/07/05 13:02:52;;;;;;;5.97;4.90;;;;;;;31.18;29.63;98278.80;2291201;77;21012;-82
2021/07/05 13:05:53;;;;;;;5.22;4.70;;;;;;;31.03;29.93;98280.87;2297527;77;20911;-80
2021/07/05 13:08:54;;;;;;;4.67;4.20;;;;;;;31.23;29.97;98287.41;2290716;78;21619;-82
2021/07/05 13:11:55;;;;;;;6.10;5.58;;;;;;;31.65;29.39;98291.11;2283764;78;21428;-80
2021/07/05 13:14:56;;;;;;;65.22;58.58;;;;;;;31.77;28.77;98285.72;2281176;77;20969;-82
2021/07/05 13:17:57;;;;;;;4.75;4.35;;;;;;;32.25;29.03;98272.67;2281044;78;21321;-83
2021/07/05 13:20:58;;;;;;;9.43;8.08;;;;;;;32.46;27.32;98276.71;2281012;77;20970;-81
2021/07/05 13:23:59;;;;;;;4.60;4.20;;;;;;;32.50;27.42;98284.42;2281493;78;21357;-82
2021/07/05 13:27:00;;;;;;;7.55;6.78;;;;;;;32.39;26.47;98280.94;2281402;77;21369;-82
2021/07/05 13:30:01;;;;;;;7.60;6.03;;;;;;;31.99;27.84;98285.13;2280921;78;20910;-83
2021/07/05 13:33:02;;;;;;;6.80;6.03;;;;;;;32.02;28.51;98292.11;2280778;77;20962;-82
2021/07/05 13:36:03;;;;;;;5.80;4.87;;;;;;;31.94;28.14;98298.65;2280782;78;21329;-82
2021/07/05 13:39:04;;;;;;;5.12;4.72;;;;;;;31.85;28.83;98297.58;2280844;78;21325;-81
2021/07/05 13:42:04;;;;;;;5.20;4.70;;;;;;;31.64;29.17;98305.59;2280778;78;21039;-82
2021/07/05 13:45:05;;;;;;;29.48;22.32;;;;;;;31.17;30.00;98299.15;2281307;78;21325;-81
2021/07/05 13:48:10;;;;;;;18.15;10.85;;;;;;;30.96;30.67;98304.39;2281394;78;21255;-83
2021/07/05 13:51:11;;;;;;;5.35;4.85;;;;;;;30.70;30.65;98305.11;2282238;78;20919;-81
2021/07/05 13:54:15;;;;;;;5.40;4.90;;;;;;;30.39;30.32;98300.75;2281875;77;21283;-81
2021/07/05 13:57:19;;;;;;;6.45;4.67;;;;;;;30.26;30.86;98309.85;2281295;78;20974;-82
2021/07/05 14:00:20;;;;;;;9.40;5.42;;;;;;;30.03;31.80;98304.39;2281231;78;21021;-81
2021/07/05 14:03:21;;;;;;;7.85;6.15;;;;;;;30.17;31.67;98303.34;2281346;78;21037;-81
2021/07/05 14:06:22;;;;;;;8.90;7.62;;;;;;;30.67;32.05;98306.21;2281407;77;20914;-84
2021/07/05 14:09:23;;;;;;;6.70;6.10;;;;;;;30.92;31.43;98311.00;2281368;78;20910;-82